Brownfield, Texas
Current Conditions -  °F | °C
As of 11:55 AM on Monday 24 Nov 2014 (Local Time) from KGNC Reporting Station
Clear Clear  
Wind Chill: 46°   Ceiling: Unl
Heat Index: 50°   Visibility: 10mi
Dew Point: 23°   Wind: 9mph
Humidity: 35%   Direction: 310°NW
Pressure: 30.1"   Gusts: NA
Location:  33.18°N, 102.27°W
Report Text: KGNC 241755Z AUTO 31008KT 10SM CLR 10/M05 A3010 RMK AO2 T00981051 10098 21023
Loading
Personal Weather Stations






























Interactive Weather Map New forecast layout! Learn more

10-Day Weather Forecast

Advertisements
Track Severe Weather on mobile